EZY6578 EDDH-EGKK
Flight info
| Callsign | EZY6578 |
|---|---|
| Flight time | 1h 16m |
| Altitude | 38000 |
| Route | WSN5G WSN N125 ONTAZ DCT GALSO Q63 ARREK Y4 TEBRA |
| Aircraft | A20N/M-SDE2E3FGHIRWXY/LB1 |
Departure
| Time | 2026-05-07 20:26 |
|---|---|
| Airport | Hamburg Helmut Schmidt Airport (EDDH) |
Arrival
| Time | 2026-05-07 21:42 |
|---|---|
| Airport | London Gatwick Airport (EGKK) |
| Time | Latitude | Longitude | Altitude | Speed | Heading |
|---|---|---|---|---|---|
| 2026-05-07 20:02 | 53.63295 | 10.00356 | 50 ft | 0 kts | 87° |
| 2026-05-07 20:17 | 53.63295 | 10.00353 | 50 ft | 2 kts | 87° |
| 2026-05-07 20:17 | 53.63294 | 10.00323 | 50 ft | 3 kts | 87° |
| 2026-05-07 20:18 | 53.63295 | 10.00272 | 47 ft | 5 kts | 107° |
| 2026-05-07 20:18 | 53.63317 | 10.00230 | 48 ft | 5 kts | 167° |
| 2026-05-07 20:18 | 53.63320 | 10.00229 | 48 ft | 0 kts | 169° |
| 2026-05-07 20:19 | 53.63310 | 10.00232 | 46 ft | 10 kts | 169° |
| 2026-05-07 20:20 | 53.63202 | 10.00250 | 49 ft | 19 kts | 175° |
| 2026-05-07 20:20 | 53.63062 | 10.00249 | 47 ft | 17 kts | 202° |
| 2026-05-07 20:20 | 53.62953 | 10.00138 | 45 ft | 18 kts | 212° |
| 2026-05-07 20:20 | 53.62857 | 10.00003 | 45 ft | 16 kts | 243° |
| 2026-05-07 20:21 | 53.62848 | 9.99971 | 45 ft | 0 kts | 240° |
| 2026-05-07 20:21 | 53.62839 | 9.99943 | 45 ft | 14 kts | 240° |
| 2026-05-07 20:22 | 53.62830 | 9.99776 | 44 ft | 11 kts | 322° |
| 2026-05-07 20:22 | 53.62846 | 9.99761 | 46 ft | 0 kts | 333° |
| 2026-05-07 20:25 | 53.62875 | 9.99736 | 45 ft | 30 kts | 334° |
| 2026-05-07 20:25 | 53.63364 | 9.99315 | 49 ft | 123 kts | 333° |
| 2026-05-07 20:25 | 53.64295 | 9.98499 | 392 ft | 166 kts | 335° |
| 2026-05-07 20:26 | 53.65382 | 9.97550 | 1178 ft | 185 kts | 336° |
| 2026-05-07 20:26 | 53.66553 | 9.96539 | 2175 ft | 185 kts | 336° |
| 2026-05-07 20:26 | 53.67657 | 9.95586 | 2855 ft | 176 kts | 336° |
| 2026-05-07 20:26 | 53.68784 | 9.94633 | 3609 ft | 187 kts | 336° |
| 2026-05-07 20:27 | 53.69927 | 9.93465 | 4387 ft | 202 kts | 323° |
| 2026-05-07 20:27 | 53.70970 | 9.91618 | 4580 ft | 228 kts | 300° |
| 2026-05-07 20:27 | 53.71375 | 9.89048 | 4706 ft | 230 kts | 266° |
| 2026-05-07 20:27 | 53.71044 | 9.86366 | 4900 ft | 246 kts | 251° |
| 2026-05-07 20:28 | 53.70450 | 9.83541 | 5538 ft | 265 kts | 249° |
| 2026-05-07 20:28 | 53.69788 | 9.80550 | 6459 ft | 276 kts | 250° |
| 2026-05-07 20:28 | 53.69133 | 9.77501 | 7534 ft | 279 kts | 250° |
| 2026-05-07 20:28 | 53.68492 | 9.74385 | 8604 ft | 284 kts | 251° |
| 2026-05-07 20:29 | 53.67849 | 9.71177 | 8983 ft | 287 kts | 251° |
| 2026-05-07 20:29 | 53.67227 | 9.68017 | 9249 ft | 287 kts | 251° |
| 2026-05-07 20:29 | 53.66599 | 9.64813 | 9478 ft | 288 kts | 251° |
| 2026-05-07 20:29 | 53.65968 | 9.61604 | 9685 ft | 289 kts | 251° |
| 2026-05-07 20:30 | 53.65257 | 9.58436 | 9836 ft | 289 kts | 244° |
| 2026-05-07 20:30 | 53.64237 | 9.55523 | 9986 ft | 289 kts | 233° |
| 2026-05-07 20:30 | 53.63043 | 9.52785 | 10099 ft | 289 kts | 233° |
| 2026-05-07 20:30 | 53.61855 | 9.50034 | 10126 ft | 295 kts | 233° |
| 2026-05-07 20:31 | 53.60573 | 9.47050 | 10130 ft | 330 kts | 233° |
| 2026-05-07 20:31 | 53.59216 | 9.43889 | 10116 ft | 334 kts | 234° |
| 2026-05-07 20:31 | 53.57877 | 9.40773 | 10129 ft | 320 kts | 234° |
| 2026-05-07 20:31 | 53.56587 | 9.37770 | 10142 ft | 310 kts | 234° |
| 2026-05-07 20:32 | 53.55368 | 9.34801 | 10290 ft | 310 kts | 242° |
| 2026-05-07 20:32 | 53.54736 | 9.31261 | 10431 ft | 329 kts | 263° |
| 2026-05-07 20:32 | 53.54487 | 9.27406 | 11177 ft | 337 kts | 264° |
| 2026-05-07 20:32 | 53.54237 | 9.23431 | 12219 ft | 339 kts | 264° |
| 2026-05-07 20:33 | 53.53989 | 9.19509 | 13172 ft | 343 kts | 264° |
| 2026-05-07 20:33 | 53.53733 | 9.15479 | 14095 ft | 348 kts | 264° |
| 2026-05-07 20:33 | 53.53473 | 9.11409 | 14912 ft | 353 kts | 264° |
| 2026-05-07 20:33 | 53.53207 | 9.07285 | 15736 ft | 357 kts | 264° |
| 2026-05-07 20:34 | 53.52935 | 9.03109 | 16562 ft | 361 kts | 264° |
| 2026-05-07 20:34 | 53.52660 | 8.98892 | 17368 ft | 366 kts | 264° |
| 2026-05-07 20:34 | 53.52381 | 8.94610 | 18143 ft | 371 kts | 264° |
| 2026-05-07 20:34 | 53.52104 | 8.90292 | 18862 ft | 375 kts | 264° |
| 2026-05-07 20:35 | 53.51822 | 8.85898 | 19594 ft | 378 kts | 264° |
| 2026-05-07 20:35 | 53.51538 | 8.81477 | 20278 ft | 383 kts | 264° |
| 2026-05-07 20:35 | 53.51249 | 8.77008 | 20978 ft | 386 kts | 264° |
| 2026-05-07 20:35 | 53.50958 | 8.72505 | 21652 ft | 390 kts | 263° |
| 2026-05-07 20:36 | 53.50664 | 8.67947 | 22332 ft | 394 kts | 263° |
| 2026-05-07 20:36 | 53.50369 | 8.63355 | 23013 ft | 398 kts | 263° |
| 2026-05-07 20:36 | 53.50070 | 8.58714 | 23659 ft | 402 kts | 263° |
| 2026-05-07 20:36 | 53.49768 | 8.54031 | 24215 ft | 405 kts | 263° |
| 2026-05-07 20:37 | 53.49464 | 8.49294 | 24763 ft | 409 kts | 263° |
| 2026-05-07 20:37 | 53.49158 | 8.44532 | 25317 ft | 412 kts | 263° |
| 2026-05-07 20:37 | 53.48850 | 8.39732 | 25845 ft | 415 kts | 263° |
| 2026-05-07 20:37 | 53.48543 | 8.34886 | 26357 ft | 419 kts | 263° |
| 2026-05-07 20:38 | 53.48234 | 8.30007 | 26860 ft | 422 kts | 263° |
| 2026-05-07 20:38 | 53.47924 | 8.25083 | 27351 ft | 425 kts | 263° |
| 2026-05-07 20:38 | 53.47613 | 8.20131 | 27841 ft | 428 kts | 263° |
| 2026-05-07 20:38 | 53.47306 | 8.15211 | 28302 ft | 431 kts | 263° |
| 2026-05-07 20:39 | 53.46992 | 8.10175 | 28738 ft | 435 kts | 263° |
| 2026-05-07 20:39 | 53.46678 | 8.05112 | 29179 ft | 438 kts | 263° |
| 2026-05-07 20:39 | 53.46363 | 8.00019 | 29603 ft | 440 kts | 263° |
| 2026-05-07 20:39 | 53.46043 | 7.94891 | 30023 ft | 443 kts | 263° |
| 2026-05-07 20:40 | 53.45720 | 7.89712 | 30390 ft | 447 kts | 263° |
| 2026-05-07 20:40 | 53.45395 | 7.84508 | 30743 ft | 450 kts | 263° |
| 2026-05-07 20:40 | 53.45066 | 7.79275 | 31088 ft | 453 kts | 263° |
| 2026-05-07 20:40 | 53.44736 | 7.74003 | 31499 ft | 454 kts | 263° |
| 2026-05-07 20:41 | 53.44409 | 7.68797 | 31953 ft | 453 kts | 263° |
| 2026-05-07 20:41 | 53.44080 | 7.63535 | 32433 ft | 453 kts | 263° |
| 2026-05-07 20:41 | 53.43751 | 7.58295 | 32901 ft | 452 kts | 263° |
| 2026-05-07 20:41 | 53.43421 | 7.53043 | 33349 ft | 452 kts | 263° |
| 2026-05-07 20:42 | 53.43093 | 7.47810 | 33794 ft | 451 kts | 263° |
| 2026-05-07 20:42 | 53.42767 | 7.42577 | 34228 ft | 450 kts | 263° |
| 2026-05-07 20:42 | 53.42422 | 7.37366 | 34607 ft | 449 kts | 259° |
| 2026-05-07 20:42 | 53.41620 | 7.32334 | 34969 ft | 446 kts | 247° |
| 2026-05-07 20:43 | 53.40209 | 7.27717 | 35322 ft | 444 kts | 237° |
| 2026-05-07 20:43 | 53.38476 | 7.23448 | 35668 ft | 443 kts | 234° |
| 2026-05-07 20:43 | 53.36697 | 7.19233 | 36022 ft | 442 kts | 234° |
| 2026-05-07 20:43 | 53.34965 | 7.14981 | 36366 ft | 441 kts | 236° |
| 2026-05-07 20:44 | 53.33286 | 7.10694 | 36698 ft | 440 kts | 237° |
| 2026-05-07 20:44 | 53.31639 | 7.06381 | 37019 ft | 439 kts | 237° |
| 2026-05-07 20:44 | 53.30009 | 7.02064 | 37333 ft | 439 kts | 237° |
| 2026-05-07 20:44 | 53.28382 | 6.97745 | 37629 ft | 438 kts | 237° |
| 2026-05-07 20:45 | 53.26777 | 6.93490 | 37927 ft | 437 kts | 237° |
| 2026-05-07 20:45 | 53.25150 | 6.89188 | 38072 ft | 437 kts | 237° |
| 2026-05-07 20:45 | 53.23526 | 6.84906 | 38120 ft | 436 kts | 237° |
| 2026-05-07 20:46 | 53.20281 | 6.76372 | 38127 ft | 436 kts | 237° |
| 2026-05-07 20:46 | 53.17025 | 6.67841 | 38129 ft | 436 kts | 237° |
| 2026-05-07 20:47 | 53.13763 | 6.59325 | 38129 ft | 436 kts | 237° |
| 2026-05-07 20:47 | 53.10498 | 6.50826 | 38128 ft | 435 kts | 237° |
| 2026-05-07 20:48 | 53.07248 | 6.42398 | 38129 ft | 435 kts | 237° |
| 2026-05-07 20:48 | 53.03972 | 6.33929 | 38124 ft | 435 kts | 237° |
| 2026-05-07 20:49 | 53.00691 | 6.25476 | 38118 ft | 435 kts | 237° |
| 2026-05-07 20:49 | 52.97401 | 6.17029 | 38109 ft | 435 kts | 237° |
| 2026-05-07 20:50 | 52.94126 | 6.08646 | 38102 ft | 435 kts | 237° |
| 2026-05-07 20:50 | 52.91859 | 6.02861 | 38103 ft | 435 kts | 237° |
| 2026-05-07 20:51 | 52.88555 | 5.94453 | 38097 ft | 435 kts | 237° |
| 2026-05-07 20:51 | 52.85269 | 5.86119 | 38093 ft | 435 kts | 237° |
| 2026-05-07 20:52 | 52.81958 | 5.77747 | 38096 ft | 435 kts | 237° |
| 2026-05-07 20:52 | 52.78641 | 5.69389 | 38090 ft | 435 kts | 237° |
| 2026-05-07 20:53 | 52.75319 | 5.61045 | 38093 ft | 435 kts | 236° |
| 2026-05-07 20:53 | 52.71991 | 5.52716 | 38097 ft | 434 kts | 236° |
| 2026-05-07 20:54 | 52.68659 | 5.44401 | 38097 ft | 434 kts | 236° |
| 2026-05-07 20:54 | 52.65319 | 5.36095 | 38098 ft | 434 kts | 236° |
| 2026-05-07 20:55 | 52.61983 | 5.27824 | 38095 ft | 434 kts | 236° |
| 2026-05-07 20:55 | 52.58635 | 5.19551 | 38096 ft | 434 kts | 236° |
| 2026-05-07 20:56 | 52.55498 | 5.11824 | 38098 ft | 434 kts | 236° |
| 2026-05-07 20:56 | 52.52142 | 5.03584 | 38093 ft | 434 kts | 236° |
| 2026-05-07 20:57 | 52.48807 | 4.95421 | 38097 ft | 433 kts | 236° |
| 2026-05-07 20:57 | 52.45439 | 4.87205 | 38096 ft | 433 kts | 236° |
| 2026-05-07 20:58 | 52.42073 | 4.79019 | 38098 ft | 433 kts | 236° |
| 2026-05-07 20:58 | 52.38700 | 4.70842 | 38102 ft | 433 kts | 236° |
| 2026-05-07 20:59 | 52.35319 | 4.62673 | 38101 ft | 433 kts | 236° |
| 2026-05-07 20:59 | 52.31938 | 4.54528 | 38099 ft | 432 kts | 236° |
| 2026-05-07 21:00 | 52.28557 | 4.46411 | 38100 ft | 432 kts | 236° |
| 2026-05-07 21:00 | 52.25190 | 4.38353 | 38101 ft | 432 kts | 236° |
| 2026-05-07 21:01 | 52.21796 | 4.30254 | 38087 ft | 432 kts | 236° |
| 2026-05-07 21:01 | 52.18400 | 4.22178 | 38088 ft | 432 kts | 236° |
| 2026-05-07 21:02 | 52.14999 | 4.14114 | 38089 ft | 432 kts | 236° |
| 2026-05-07 21:02 | 52.12775 | 4.08854 | 38091 ft | 431 kts | 236° |
| 2026-05-07 21:03 | 52.09368 | 4.00817 | 38095 ft | 431 kts | 235° |
| 2026-05-07 21:03 | 52.05978 | 3.92847 | 38096 ft | 431 kts | 235° |
| 2026-05-07 21:04 | 52.02559 | 3.84834 | 38094 ft | 431 kts | 235° |
| 2026-05-07 21:04 | 51.99136 | 3.76835 | 38090 ft | 431 kts | 235° |
| 2026-05-07 21:05 | 51.96294 | 3.70213 | 38094 ft | 431 kts | 235° |
| 2026-05-07 21:05 | 51.92864 | 3.62244 | 38084 ft | 431 kts | 235° |
| 2026-05-07 21:06 | 51.89430 | 3.54291 | 38086 ft | 430 kts | 235° |
| 2026-05-07 21:06 | 51.85991 | 3.46348 | 38089 ft | 430 kts | 235° |
| 2026-05-07 21:07 | 51.82552 | 3.38433 | 38088 ft | 430 kts | 235° |
| 2026-05-07 21:07 | 51.79108 | 3.30525 | 38094 ft | 430 kts | 235° |
| 2026-05-07 21:08 | 51.75735 | 3.22556 | 38093 ft | 429 kts | 240° |
| 2026-05-07 21:08 | 51.73330 | 3.13822 | 38089 ft | 429 kts | 253° |
| 2026-05-07 21:09 | 51.72148 | 3.04398 | 38087 ft | 430 kts | 262° |
| 2026-05-07 21:09 | 51.71752 | 2.99620 | 37948 ft | 429 kts | 262° |
| 2026-05-07 21:09 | 51.71349 | 2.94852 | 37461 ft | 428 kts | 261° |
| 2026-05-07 21:09 | 51.70937 | 2.90081 | 36710 ft | 430 kts | 261° |
| 2026-05-07 21:10 | 51.70517 | 2.85294 | 35846 ft | 433 kts | 261° |
| 2026-05-07 21:10 | 51.70092 | 2.80470 | 35004 ft | 436 kts | 261° |
| 2026-05-07 21:10 | 51.69662 | 2.75630 | 34242 ft | 435 kts | 262° |
| 2026-05-07 21:10 | 51.69233 | 2.70817 | 33357 ft | 434 kts | 262° |
| 2026-05-07 21:11 | 51.68802 | 2.65996 | 32371 ft | 435 kts | 262° |
| 2026-05-07 21:11 | 51.68369 | 2.61170 | 31418 ft | 436 kts | 262° |
| 2026-05-07 21:11 | 51.67509 | 2.51604 | 29850 ft | 431 kts | 262° |
| 2026-05-07 21:12 | 51.67081 | 2.46879 | 29346 ft | 421 kts | 261° |
| 2026-05-07 21:12 | 51.66660 | 2.42269 | 28819 ft | 412 kts | 261° |
| 2026-05-07 21:12 | 51.66245 | 2.37748 | 28258 ft | 405 kts | 261° |
| 2026-05-07 21:12 | 51.65834 | 2.33283 | 27700 ft | 399 kts | 261° |
| 2026-05-07 21:13 | 51.65428 | 2.28897 | 27154 ft | 393 kts | 261° |
| 2026-05-07 21:13 | 51.65026 | 2.24576 | 26609 ft | 388 kts | 261° |
| 2026-05-07 21:13 | 51.64628 | 2.20311 | 26081 ft | 383 kts | 261° |
| 2026-05-07 21:13 | 51.64233 | 2.16098 | 25540 ft | 379 kts | 261° |
| 2026-05-07 21:14 | 51.63841 | 2.11933 | 25012 ft | 375 kts | 261° |
| 2026-05-07 21:14 | 51.63453 | 2.07801 | 24481 ft | 371 kts | 261° |
| 2026-05-07 21:14 | 51.63072 | 2.03705 | 23955 ft | 368 kts | 261° |
| 2026-05-07 21:14 | 51.62696 | 1.99643 | 23387 ft | 366 kts | 261° |
| 2026-05-07 21:15 | 51.62325 | 1.95655 | 22867 ft | 361 kts | 261° |
| 2026-05-07 21:15 | 51.61955 | 1.91673 | 22344 ft | 356 kts | 261° |
| 2026-05-07 21:15 | 51.61551 | 1.87748 | 21831 ft | 361 kts | 256° |
| 2026-05-07 21:15 | 51.60702 | 1.83779 | 21288 ft | 387 kts | 245° |
| 2026-05-07 21:16 | 51.59277 | 1.80021 | 20706 ft | 397 kts | 232° |
| 2026-05-07 21:16 | 51.57461 | 1.76668 | 20128 ft | 398 kts | 229° |
| 2026-05-07 21:16 | 51.55648 | 1.73402 | 19545 ft | 395 kts | 229° |
| 2026-05-07 21:16 | 51.53834 | 1.70130 | 18966 ft | 389 kts | 229° |
| 2026-05-07 21:17 | 51.52048 | 1.66902 | 18377 ft | 384 kts | 229° |
| 2026-05-07 21:17 | 51.50319 | 1.63682 | 17781 ft | 377 kts | 232° |
| 2026-05-07 21:17 | 51.48885 | 1.60215 | 17225 ft | 370 kts | 240° |
| 2026-05-07 21:17 | 51.47799 | 1.56522 | 16686 ft | 364 kts | 248° |
| 2026-05-07 21:18 | 51.46944 | 1.52737 | 16148 ft | 358 kts | 249° |
| 2026-05-07 21:18 | 51.46097 | 1.49010 | 15614 ft | 353 kts | 249° |
| 2026-05-07 21:18 | 51.45254 | 1.45333 | 15094 ft | 349 kts | 249° |
| 2026-05-07 21:18 | 51.44415 | 1.41708 | 14575 ft | 345 kts | 247° |
| 2026-05-07 21:19 | 51.43296 | 1.38358 | 14283 ft | 340 kts | 234° |
| 2026-05-07 21:19 | 51.41714 | 1.35501 | 14146 ft | 345 kts | 221° |
| 2026-05-07 21:19 | 51.39814 | 1.33177 | 14088 ft | 343 kts | 216° |
| 2026-05-07 21:19 | 51.37893 | 1.30911 | 13767 ft | 343 kts | 216° |
| 2026-05-07 21:20 | 51.35964 | 1.28628 | 13080 ft | 346 kts | 216° |
| 2026-05-07 21:20 | 51.34051 | 1.26364 | 12765 ft | 336 kts | 216° |
| 2026-05-07 21:20 | 51.32208 | 1.24183 | 12650 ft | 336 kts | 216° |
| 2026-05-07 21:20 | 51.30317 | 1.21951 | 12486 ft | 338 kts | 216° |
| 2026-05-07 21:21 | 51.28432 | 1.19728 | 12245 ft | 335 kts | 216° |
| 2026-05-07 21:21 | 51.26555 | 1.17518 | 12018 ft | 334 kts | 216° |
| 2026-05-07 21:21 | 51.24686 | 1.15321 | 11797 ft | 333 kts | 216° |
| 2026-05-07 21:21 | 51.22820 | 1.13128 | 11575 ft | 333 kts | 216° |
| 2026-05-07 21:22 | 51.20957 | 1.10941 | 11362 ft | 332 kts | 216° |
| 2026-05-07 21:22 | 51.19099 | 1.08763 | 11135 ft | 331 kts | 216° |
| 2026-05-07 21:22 | 51.17246 | 1.06592 | 10928 ft | 329 kts | 216° |
| 2026-05-07 21:22 | 51.15429 | 1.04466 | 10836 ft | 317 kts | 216° |
| 2026-05-07 21:23 | 51.13685 | 1.02428 | 10715 ft | 304 kts | 216° |
| 2026-05-07 21:23 | 51.12040 | 1.00427 | 10591 ft | 291 kts | 220° |
| 2026-05-07 21:23 | 51.10837 | 0.97961 | 10462 ft | 279 kts | 246° |
| 2026-05-07 21:23 | 51.10379 | 0.94974 | 10359 ft | 285 kts | 261° |
| 2026-05-07 21:24 | 51.10102 | 0.91854 | 10234 ft | 283 kts | 261° |
| 2026-05-07 21:24 | 51.09827 | 0.88769 | 10070 ft | 281 kts | 261° |
| 2026-05-07 21:24 | 51.09552 | 0.85696 | 9701 ft | 279 kts | 261° |
| 2026-05-07 21:24 | 51.09277 | 0.82638 | 9272 ft | 279 kts | 261° |
| 2026-05-07 21:25 | 51.09002 | 0.79593 | 8843 ft | 277 kts | 261° |
| 2026-05-07 21:25 | 51.08729 | 0.76571 | 8426 ft | 276 kts | 261° |
| 2026-05-07 21:25 | 51.08459 | 0.73550 | 8010 ft | 275 kts | 261° |
| 2026-05-07 21:25 | 51.08191 | 0.70557 | 7605 ft | 273 kts | 261° |
| 2026-05-07 21:26 | 51.07924 | 0.67576 | 7101 ft | 271 kts | 261° |
| 2026-05-07 21:26 | 51.07658 | 0.64599 | 6957 ft | 274 kts | 261° |
| 2026-05-07 21:26 | 51.07388 | 0.61608 | 6913 ft | 273 kts | 261° |
| 2026-05-07 21:26 | 51.07118 | 0.58624 | 6904 ft | 273 kts | 261° |
| 2026-05-07 21:27 | 51.06845 | 0.55642 | 6894 ft | 273 kts | 261° |
| 2026-05-07 21:27 | 51.06570 | 0.52648 | 6888 ft | 273 kts | 261° |
| 2026-05-07 21:27 | 51.06295 | 0.49669 | 6885 ft | 273 kts | 261° |
| 2026-05-07 21:27 | 51.06017 | 0.46671 | 6881 ft | 273 kts | 261° |
| 2026-05-07 21:28 | 51.05739 | 0.43690 | 6881 ft | 273 kts | 261° |
| 2026-05-07 21:28 | 51.05528 | 0.41436 | 6884 ft | 273 kts | 261° |
| 2026-05-07 21:28 | 51.05231 | 0.38273 | 6888 ft | 273 kts | 261° |
| 2026-05-07 21:29 | 51.04947 | 0.35255 | 6894 ft | 272 kts | 261° |
| 2026-05-07 21:29 | 51.04668 | 0.32318 | 6904 ft | 272 kts | 261° |
| 2026-05-07 21:29 | 51.04384 | 0.29345 | 6913 ft | 272 kts | 261° |
| 2026-05-07 21:29 | 51.04100 | 0.26372 | 6924 ft | 272 kts | 261° |
| 2026-05-07 21:30 | 51.03813 | 0.23396 | 6935 ft | 272 kts | 261° |
| 2026-05-07 21:30 | 51.03525 | 0.20423 | 6950 ft | 271 kts | 261° |
| 2026-05-07 21:30 | 51.03238 | 0.17461 | 6960 ft | 272 kts | 261° |
| 2026-05-07 21:30 | 51.02949 | 0.14492 | 6973 ft | 272 kts | 261° |
| 2026-05-07 21:31 | 51.02657 | 0.11529 | 7089 ft | 271 kts | 261° |
| 2026-05-07 21:31 | 51.02365 | 0.08572 | 7091 ft | 271 kts | 261° |
| 2026-05-07 21:31 | 51.02072 | 0.05615 | 7091 ft | 271 kts | 261° |
| 2026-05-07 21:31 | 51.01778 | 0.02660 | 7092 ft | 271 kts | 261° |
| 2026-05-07 21:32 | 51.01485 | -0.00286 | 7094 ft | 271 kts | 261° |
| 2026-05-07 21:32 | 51.01189 | -0.03244 | 7094 ft | 271 kts | 261° |
| 2026-05-07 21:32 | 51.01008 | -0.06220 | 7096 ft | 271 kts | 269° |
| 2026-05-07 21:32 | 51.01032 | -0.09211 | 7096 ft | 271 kts | 271° |
| 2026-05-07 21:33 | 51.01069 | -0.12201 | 7095 ft | 271 kts | 271° |
| 2026-05-07 21:33 | 51.01105 | -0.15189 | 7096 ft | 271 kts | 271° |
| 2026-05-07 21:33 | 51.01140 | -0.18151 | 7098 ft | 271 kts | 271° |
| 2026-05-07 21:33 | 51.01174 | -0.21142 | 7097 ft | 271 kts | 271° |
| 2026-05-07 21:34 | 51.01208 | -0.24136 | 7095 ft | 271 kts | 271° |
| 2026-05-07 21:34 | 51.01241 | -0.27128 | 7051 ft | 270 kts | 271° |
| 2026-05-07 21:34 | 51.01273 | -0.30099 | 6773 ft | 269 kts | 271° |
| 2026-05-07 21:34 | 51.01304 | -0.33076 | 6364 ft | 270 kts | 271° |
| 2026-05-07 21:35 | 51.01335 | -0.36067 | 5906 ft | 271 kts | 271° |
| 2026-05-07 21:35 | 51.01370 | -0.39062 | 5473 ft | 271 kts | 271° |
| 2026-05-07 21:35 | 51.01408 | -0.42046 | 5082 ft | 270 kts | 271° |
| 2026-05-07 21:35 | 51.01543 | -0.45011 | 4655 ft | 270 kts | 284° |
| 2026-05-07 21:36 | 51.02395 | -0.47633 | 4232 ft | 269 kts | 312° |
| 2026-05-07 21:36 | 51.03911 | -0.49355 | 3690 ft | 271 kts | 339° |
| 2026-05-07 21:36 | 51.05657 | -0.50393 | 3413 ft | 266 kts | 341° |
| 2026-05-07 21:36 | 51.07398 | -0.51106 | 3100 ft | 259 kts | 3° |
| 2026-05-07 21:37 | 51.09079 | -0.50223 | 3023 ft | 257 kts | 39° |
| 2026-05-07 21:37 | 51.10079 | -0.48050 | 3018 ft | 237 kts | 70° |
| 2026-05-07 21:37 | 51.10589 | -0.45646 | 3012 ft | 222 kts | 75° |
| 2026-05-07 21:37 | 51.11011 | -0.43369 | 3016 ft | 208 kts | 75° |
| 2026-05-07 21:38 | 51.11391 | -0.41260 | 2994 ft | 186 kts | 76° |
| 2026-05-07 21:38 | 51.11725 | -0.39380 | 2718 ft | 166 kts | 76° |
| 2026-05-07 21:38 | 51.12018 | -0.37698 | 2497 ft | 148 kts | 76° |
| 2026-05-07 21:38 | 51.12274 | -0.36205 | 2290 ft | 132 kts | 77° |
| 2026-05-07 21:39 | 51.12502 | -0.34852 | 2107 ft | 125 kts | 78° |
| 2026-05-07 21:39 | 51.12720 | -0.33504 | 1947 ft | 124 kts | 78° |
| 2026-05-07 21:39 | 51.12937 | -0.32171 | 1767 ft | 124 kts | 77° |
| 2026-05-07 21:39 | 51.13155 | -0.30840 | 1597 ft | 125 kts | 79° |
| 2026-05-07 21:40 | 51.13348 | -0.29499 | 1440 ft | 124 kts | 79° |
| 2026-05-07 21:40 | 51.13533 | -0.28156 | 1248 ft | 124 kts | 80° |
| 2026-05-07 21:40 | 51.13717 | -0.26834 | 1023 ft | 123 kts | 78° |
| 2026-05-07 21:40 | 51.13913 | -0.25503 | 856 ft | 124 kts | 78° |
| 2026-05-07 21:41 | 51.14102 | -0.24168 | 663 ft | 123 kts | 78° |
| 2026-05-07 21:41 | 51.14287 | -0.22842 | 475 ft | 122 kts | 78° |
| 2026-05-07 21:41 | 51.14472 | -0.21523 | 320 ft | 122 kts | 79° |
| 2026-05-07 21:41 | 51.14653 | -0.20206 | 220 ft | 122 kts | 78° |
| 2026-05-07 21:42 | 51.14819 | -0.19006 | 214 ft | 79 kts | 77° |
| 2026-05-07 21:42 | 51.14873 | -0.18609 | 214 ft | 0 kts | 78° |
| 2026-05-07 21:42 | 51.14876 | -0.18591 | 213 ft | 16 kts | 77° |
| 2026-05-07 21:42 | 51.14900 | -0.18414 | 216 ft | 19 kts | 77° |
| 2026-05-07 21:43 | 51.14929 | -0.18198 | 215 ft | 21 kts | 78° |
| 2026-05-07 21:43 | 51.14983 | -0.17968 | 214 ft | 23 kts | 64° |
| 2026-05-07 21:43 | 51.15052 | -0.17804 | 217 ft | 0 kts | 51° |
| 2026-05-07 21:43 | 51.15056 | -0.17798 | 217 ft | 4 kts | 49° |
| 2026-05-07 21:44 | 51.15066 | -0.17782 | 207 ft | 0 kts | 44° |
| 2026-05-07 21:44 | 51.15070 | -0.17776 | 207 ft | 5 kts | 40° |
| 2026-05-07 21:45 | 51.15141 | -0.17765 | 205 ft | 14 kts | 349° |
| 2026-05-07 21:45 | 51.15248 | -0.17772 | 210 ft | 13 kts | 31° |
| 2026-05-07 21:45 | 51.15276 | -0.17629 | 210 ft | 15 kts | 78° |
| 2026-05-07 21:45 | 51.15300 | -0.17446 | 207 ft | 18 kts | 78° |
| 2026-05-07 21:46 | 51.15364 | -0.17382 | 212 ft | 12 kts | 350° |
| 2026-05-07 21:46 | 51.15458 | -0.17409 | 207 ft | 16 kts | 346° |
| 2026-05-07 21:46 | 51.15543 | -0.17503 | 210 ft | 15 kts | 271° |
| 2026-05-07 21:46 | 51.15576 | -0.17620 | 206 ft | 15 kts | 347° |
| 2026-05-07 21:47 | 51.15592 | -0.17626 | 207 ft | 0 kts | 347° |